CheckWX is a tool to help pilots better visualize weather data.  It is not intended as a substitute for an official pre-flight weather briefing.

00:22:04 UTC

KRNO TAF
Reno / Tahoe International Airport
Reno, Nevada, USA
KRNO 182326Z 1900/1924 26011KT P6SM FEW080 SCT120 FM190300 VRB04KT P6SM FEW100 SCT180 FM191600 22010G16KT P6SM SCT080 BKN150 WS020/26035KT FM192000 30022G32KT P6SM BKN200

Oct-19@
00:00 UTC

Oct-19 @ 00:00 UTC

Oct-19@
03:00 UTC

Oct-19 @ 03:00 UTC

KRNO 182326Z 1900/1924 26011KT P6SM FEW080 SCT120
Wind
  • 260° at 11 KTS
Cloud Levels
  • Few at 8,000' AGL
  • Scattered at 12,000' AGL

Oct-19@
03:00 UTC

Oct-19 @ 03:00 UTC

Oct-19@
16:00 UTC

Oct-19 @ 16:00 UTC

FM190300 VRB04KT P6SM FEW100 SCT180

From

From Standard forecast or significant change

Wind
  • Variable at 4 KTS
Cloud Levels
  • Few at 10,000' AGL
  • Scattered at 18,000' AGL

Oct-19@
16:00 UTC

Oct-19 @ 16:00 UTC

Oct-19@
20:00 UTC

Oct-19 @ 20:00 UTC

FM191600 22010G16KT P6SM SCT080 BKN150 WS020/26035KT

From

From Standard forecast or significant change

Wind
  • 220° at 10 KTS
  • {Gusting to 16 KTS
Cloud Levels
  • Scattered at 8,000' AGL
  • Broken at 15,000' AGL

Oct-19@
20:00 UTC

Oct-19 @ 20:00 UTC

Oct-20@
00:00 UTC

Oct-20 @ 00:00 UTC

FM192000 30022G32KT P6SM BKN200

From

From Standard forecast or significant change

Wind
  • 300° at 22 KTS
  • {Gusting to 32 KTS
Cloud Levels
  • Broken at 20,000' AGL